sensor_id;sensor_type;location;lat;lon;timestamp;pressure;altitude;pressure_sealevel;temperature;humidity
39449;BME280;25151;45.566;9.382;2023-02-17T00:02:37;101024.47;;;19.51;49.63
39449;BME280;25151;45.566;9.382;2023-02-17T00:05:44;101026.47;;;19.50;49.53
39449;BME280;25151;45.566;9.382;2023-02-17T00:08:46;101017.72;;;19.48;49.73
39449;BME280;25151;45.566;9.382;2023-02-17T00:11:47;101017.72;;;19.48;49.57
39449;BME280;25151;45.566;9.382;2023-02-17T00:14:48;101014.91;;;19.48;49.63
39449;BME280;25151;45.566;9.382;2023-02-17T00:17:49;101012.13;;;19.48;49.52
39449;BME280;25151;45.566;9.382;2023-02-17T00:20:50;101016.09;;;19.47;49.63
39449;BME280;25151;45.566;9.382;2023-02-17T00:23:52;101011.31;;;19.48;49.50
39449;BME280;25151;45.566;9.382;2023-02-17T00:26:53;101016.09;;;19.47;49.56
39449;BME280;25151;45.566;9.382;2023-02-17T00:29:54;101009.34;;;19.45;49.69
39449;BME280;25151;45.566;9.382;2023-02-17T00:32:54;101015.34;;;19.43;49.58
39449;BME280;25151;45.566;9.382;2023-02-17T00:35:55;101013.75;;;19.42;49.65
39449;BME280;25151;45.566;9.382;2023-02-17T00:38:57;101016.97;;;19.40;49.76
39449;BME280;25151;45.566;9.382;2023-02-17T00:41:58;101016.16;;;19.40;49.69
39449;BME280;25151;45.566;9.382;2023-02-17T00:44:58;101010.56;;;19.40;49.77
39449;BME280;25151;45.566;9.382;2023-02-17T00:47:59;101016.16;;;19.40;49.68
39449;BME280;25151;45.566;9.382;2023-02-17T00:51:00;101026.56;;;19.39;49.79
39449;BME280;25151;45.566;9.382;2023-02-17T00:54:01;101019.81;;;19.37;49.67
39449;BME280;25151;45.566;9.382;2023-02-17T00:57:02;101024.59;;;19.36;49.75
39449;BME280;25151;45.566;9.382;2023-02-17T01:00:04;101022.59;;;19.37;49.80
39449;BME280;25151;45.566;9.382;2023-02-17T01:03:06;101030.19;;;19.36;49.87
39449;BME280;25151;45.566;9.382;2023-02-17T01:06:21;101029.81;;;19.34;49.99
39449;BME280;25151;45.566;9.382;2023-02-17T01:09:22;101025.78;;;19.35;49.91
39449;BME280;25151;45.566;9.382;2023-02-17T01:12:23;101017.81;;;19.34;49.87
39449;BME280;25151;45.566;9.382;2023-02-17T01:15:27;101026.22;;;19.34;49.99
39449;BME280;25151;45.566;9.382;2023-02-17T01:18:27;101019.44;;;19.31;49.72
39449;BME280;25151;45.566;9.382;2023-02-17T01:21:29;101017.84;;;19.30;50.00
39449;BME280;25151;45.566;9.382;2023-02-17T01:24:30;101020.22;;;19.32;49.96
39449;BME280;25151;45.566;9.382;2023-02-17T01:27:32;101024.22;;;19.31;49.99
39449;BME280;25151;45.566;9.382;2023-02-17T01:30:33;101015.06;;;19.30;49.99
39449;BME280;25151;45.566;9.382;2023-02-17T01:33:37;101005.88;;;19.30;50.00
39449;BME280;25151;45.566;9.382;2023-02-17T01:36:38;101010.66;;;19.29;50.11
39449;BME280;25151;45.566;9.382;2023-02-17T01:39:38;101008.66;;;19.30;50.15
39449;BME280;25151;45.566;9.382;2023-02-17T01:42:39;101009.88;;;19.29;50.21
39449;BME280;25151;45.566;9.382;2023-02-17T01:45:51;101001.09;;;19.27;50.15
39449;BME280;25151;45.566;9.382;2023-02-17T01:48:52;101005.47;;;19.28;50.04
39449;BME280;25151;45.566;9.382;2023-02-17T01:55:07;101002.69;;;19.24;50.02
39449;BME280;25151;45.566;9.382;2023-02-17T01:58:13;101001.53;;;19.25;50.14
39449;BME280;25151;45.566;9.382;2023-02-17T02:01:16;100997.13;;;19.24;50.03
39449;BME280;25151;45.566;9.382;2023-02-17T02:04:20;101001.13;;;19.23;50.13
39449;BME280;25151;45.566;9.382;2023-02-17T02:07:28;100996.75;;;19.22;50.13
39449;BME280;25151;45.566;9.382;2023-02-17T02:10:30;100990.72;;;19.24;50.05
39449;BME280;25151;45.566;9.382;2023-02-17T02:13:30;100987.56;;;19.22;50.23
39449;BME280;25151;45.566;9.382;2023-02-17T02:33:40;100989.16;;;19.19;50.04
39449;BME280;25151;45.566;9.382;2023-02-17T02:36:49;100986.78;;;19.17;50.24
39449;BME280;25151;45.566;9.382;2023-02-17T02:39:54;100982.41;;;19.16;50.18
39449;BME280;25151;45.566;9.382;2023-02-17T02:43:00;100986.00;;;19.17;50.34
39449;BME280;25151;45.566;9.382;2023-02-17T02:46:02;100978.81;;;19.16;50.18
39449;BME280;25151;45.566;9.382;2023-02-17T02:49:03;100969.63;;;19.15;50.32
39449;BME280;25151;45.566;9.382;2023-02-17T02:52:17;100969.63;;;19.15;50.42
39449;BME280;25151;45.566;9.382;2023-02-17T02:56:26;100970.84;;;19.14;50.29
39449;BME280;25151;45.566;9.382;2023-02-17T03:09:22;100968.47;;;19.13;50.39
39449;BME280;25151;45.566;9.382;2023-02-17T03:12:25;100970.47;;;19.12;50.10
39449;BME280;25151;45.566;9.382;2023-02-17T03:15:33;100974.44;;;19.11;50.32
39449;BME280;25151;45.566;9.382;2023-02-17T03:18:35;100970.88;;;19.11;50.15
39449;BME280;25151;45.566;9.382;2023-02-17T03:21:39;100967.28;;;19.10;50.36
39449;BME280;25151;45.566;9.382;2023-02-17T03:24:41;100968.06;;;19.11;50.25
39449;BME280;25151;45.566;9.382;2023-02-17T03:27:42;100965.69;;;19.09;50.44
39449;BME280;25151;45.566;9.382;2023-02-17T03:30:43;100975.66;;;19.10;50.23
39449;BME280;25151;45.566;9.382;2023-02-17T03:33:44;100974.09;;;19.09;50.33
39449;BME280;25151;45.566;9.382;2023-02-17T03:36:45;100972.88;;;19.10;50.24
39449;BME280;25151;45.566;9.382;2023-02-17T03:39:46;100972.06;;;19.10;50.36
39449;BME280;25151;45.566;9.382;2023-02-17T03:42:46;100979.28;;;19.07;50.42
39449;BME280;25151;45.566;9.382;2023-02-17T03:45:47;100980.84;;;19.08;50.36
39449;BME280;25151;45.566;9.382;2023-02-17T03:48:48;100974.91;;;19.06;50.54
39449;BME280;25151;45.566;9.382;2023-02-17T03:51:48;100977.69;;;19.06;50.40
39449;BME280;25151;45.566;9.382;2023-02-17T03:54:52;100969.31;;;19.06;50.44
39449;BME280;25151;45.566;9.382;2023-02-17T03:57:53;100975.31;;;19.05;50.31
39449;BME280;25151;45.566;9.382;2023-02-17T04:00:55;100973.31;;;19.05;50.25
39449;BME280;25151;45.566;9.382;2023-02-17T04:03:56;100977.69;;;19.06;50.46
39449;BME280;25151;45.566;9.382;2023-02-17T04:06:56;100976.09;;;19.05;50.45
39449;BME280;25151;45.566;9.382;2023-02-17T04:09:57;100980.91;;;19.05;50.28
39449;BME280;25151;45.566;9.382;2023-02-17T04:12:57;100988.47;;;19.04;50.42
39449;BME280;25151;45.566;9.382;2023-02-17T04:15:58;100998.06;;;19.03;50.53
39449;BME280;25151;45.566;9.382;2023-02-17T04:19:00;100992.47;;;19.03;50.51
39449;BME280;25151;45.566;9.382;2023-02-17T04:22:01;100985.31;;;19.02;50.47
39449;BME280;25151;45.566;9.382;2023-02-17T04:25:04;100990.09;;;19.02;50.59
39449;BME280;25151;45.566;9.382;2023-02-17T04:28:06;100990.09;;;19.02;50.40
39449;BME280;25151;45.566;9.382;2023-02-17T04:31:08;100997.69;;;19.01;50.34
39449;BME280;25151;45.566;9.382;2023-02-17T04:34:19;100998.88;;;19.00;50.58
39449;BME280;25151;45.566;9.382;2023-02-17T04:37:20;100997.69;;;19.01;50.75
39449;BME280;25151;45.566;9.382;2023-02-17T04:40:23;100993.28;;;19.00;50.50
39449;BME280;25151;45.566;9.382;2023-02-17T04:43:47;100996.09;;;19.00;50.57
39449;BME280;25151;45.566;9.382;2023-02-17T04:46:48;100991.72;;;18.99;50.55
39449;BME280;25151;45.566;9.382;2023-02-17T04:49:54;100995.31;;;19.00;50.52
39449;BME280;25151;45.566;9.382;2023-02-17T04:53:05;100992.50;;;19.00;50.44
39449;BME280;25151;45.566;9.382;2023-02-17T04:56:16;100998.09;;;19.00;50.59
39449;BME280;25151;45.566;9.382;2023-02-17T04:59:17;100997.31;;;18.99;50.42
39449;BME280;25151;45.566;9.382;2023-02-17T05:02:27;100987.75;;;18.97;50.48
39449;BME280;25151;45.566;9.382;2023-02-17T05:05:44;101000.53;;;18.98;50.46
39449;BME280;25151;45.566;9.382;2023-02-17T05:09:00;101002.53;;;18.97;50.52
39449;BME280;25151;45.566;9.382;2023-02-17T05:12:21;100997.31;;;18.96;50.55
39449;BME280;25151;45.566;9.382;2023-02-17T05:15:25;101015.72;;;18.97;50.57
39449;BME280;25151;45.566;9.382;2023-02-17T05:18:29;101030.88;;;18.96;50.40
39449;BME280;25151;45.566;9.382;2023-02-17T05:21:34;101012.50;;;18.95;50.58
39449;BME280;25151;45.566;9.382;2023-02-17T05:24:36;101024.47;;;18.95;50.43
39449;BME280;25151;45.566;9.382;2023-02-17T05:27:36;101023.69;;;18.95;50.46
39449;BME280;25151;45.566;9.382;2023-02-17T05:30:40;101017.31;;;18.94;50.66
39449;BME280;25151;45.566;9.382;2023-02-17T05:33:42;101028.50;;;18.94;50.53
39449;BME280;25151;45.566;9.382;2023-02-17T05:36:42;101025.69;;;18.94;50.49
39449;BME280;25151;45.566;9.382;2023-02-17T05:39:46;101022.91;;;18.94;50.44
39449;BME280;25151;45.566;9.382;2023-02-17T05:42:56;101021.72;;;18.91;50.68
39449;BME280;25151;45.566;9.382;2023-02-17T05:46:06;101029.72;;;18.93;50.50
39449;BME280;25151;45.566;9.382;2023-02-17T05:49:19;101034.91;;;18.91;50.50
39449;BME280;25151;45.566;9.382;2023-02-17T05:52:33;101032.09;;;18.91;50.24
39449;BME280;25151;45.566;9.382;2023-02-17T05:55:34;101034.91;;;18.91;50.53
39449;BME280;25151;45.566;9.382;2023-02-17T05:58:43;101033.31;;;18.90;50.48
39449;BME280;25151;45.566;9.382;2023-02-17T06:01:44;101032.53;;;18.89;50.62
39449;BME280;25151;45.566;9.382;2023-02-17T06:04:48;101026.94;;;18.89;50.51
39449;BME280;25151;45.566;9.382;2023-02-17T06:07:49;101031.31;;;18.90;50.34
39449;BME280;25151;45.566;9.382;2023-02-17T06:10:55;101031.72;;;18.89;50.59
39449;BME280;25151;45.566;9.382;2023-02-17T06:14:07;101036.09;;;18.90;50.53
39449;BME280;25151;45.566;9.382;2023-02-17T06:17:12;101038.50;;;18.88;50.65
39449;BME280;25151;45.566;9.382;2023-02-17T06:20:15;101030.13;;;18.88;50.54
39449;BME280;25151;45.566;9.382;2023-02-17T06:23:22;101038.50;;;18.88;50.44
39449;BME280;25151;45.566;9.382;2023-02-17T06:26:42;101041.28;;;18.88;50.26
39449;BME280;25151;45.566;9.382;2023-02-17T06:29:44;101045.31;;;18.87;50.30
39449;BME280;25151;45.566;9.382;2023-02-17T06:32:46;101044.50;;;18.86;50.51
39449;BME280;25151;45.566;9.382;2023-02-17T06:35:48;101050.88;;;18.87;50.61
39449;BME280;25151;45.566;9.382;2023-02-17T06:38:51;101057.69;;;18.86;50.44
39449;BME280;25151;45.566;9.382;2023-02-17T06:41:54;101056.47;;;18.87;50.32
39449;BME280;25151;45.566;9.382;2023-02-17T06:44:56;101051.31;;;18.85;50.40
39449;BME280;25151;45.566;9.382;2023-02-17T06:48:20;101053.31;;;18.85;50.53
39449;BME280;25151;45.566;9.382;2023-02-17T06:51:24;101063.66;;;18.88;50.38
39449;BME280;25151;45.566;9.382;2023-02-17T06:54:31;101062.84;;;18.91;50.47
39449;BME280;25151;45.566;9.382;2023-02-17T06:57:36;101066.41;;;18.95;50.16
39449;BME280;25151;45.566;9.382;2023-02-17T07:00:37;101064.44;;;18.92;50.30
39449;BME280;25151;45.566;9.382;2023-02-17T07:03:40;101073.19;;;19.01;50.15
39449;BME280;25151;45.566;9.382;2023-02-17T07:06:56;101079.53;;;19.05;50.17
39449;BME280;25151;45.566;9.382;2023-02-17T07:09:58;101079.53;;;19.09;50.13
39449;BME280;25151;45.566;9.382;2023-02-17T07:13:00;101088.28;;;19.14;50.04
39449;BME280;25151;45.566;9.382;2023-02-17T07:16:04;101083.44;;;19.19;49.82
39449;BME280;25151;45.566;9.382;2023-02-17T07:19:04;101081.81;;;19.25;49.99
39449;BME280;25151;45.566;9.382;2023-02-17T07:22:16;101086.97;;;19.30;49.75
39449;BME280;25151;45.566;9.382;2023-02-17T07:25:19;101089.31;;;19.35;49.74
39449;BME280;25151;45.566;9.382;2023-02-17T07:28:25;101094.88;;;19.42;49.76
39449;BME280;25151;45.566;9.382;2023-02-17T07:31:39;101084.84;;;19.48;49.65
39449;BME280;25151;45.566;9.382;2023-02-17T07:34:49;101093.16;;;19.55;49.59
39449;BME280;25151;45.566;9.382;2023-02-17T07:37:59;101087.94;;;19.61;49.57
39449;BME280;25151;45.566;9.382;2023-02-17T07:41:18;101094.31;;;19.69;49.38
39449;BME280;25151;45.566;9.382;2023-02-17T07:44:38;101099.47;;;19.74;49.22
39449;BME280;25151;45.566;9.382;2023-02-17T07:48:17;101093.41;;;19.79;49.17
39449;BME280;25151;45.566;9.382;2023-02-17T07:51:21;101088.56;;;19.83;49.09
39449;BME280;25151;45.566;9.382;2023-02-17T07:54:22;101097.72;;;19.87;49.08
39449;BME280;25151;45.566;9.382;2023-02-17T07:57:30;101098.84;;;19.97;48.86
39449;BME280;25151;45.566;9.382;2023-02-17T08:00:39;101095.63;;;19.98;48.84
39449;BME280;25151;45.566;9.382;2023-02-17T08:03:43;101095.63;;;19.98;48.55
39449;BME280;25151;45.566;9.382;2023-02-17T08:06:46;101104.44;;;20.00;48.89
39449;BME280;25151;45.566;9.382;2023-02-17T08:09:48;101108.00;;;20.04;48.75
39449;BME280;25151;45.566;9.382;2023-02-17T08:13:11;101102.78;;;20.03;48.73
39449;BME280;25151;45.566;9.382;2023-02-17T08:16:31;101105.56;;;20.06;48.93
39449;BME280;25151;45.566;9.382;2023-02-17T08:19:35;101115.50;;;20.11;48.74
39449;BME280;25151;45.566;9.382;2023-02-17T08:22:49;101112.69;;;20.14;48.75
39449;BME280;25151;45.566;9.382;2023-02-17T08:26:01;101120.69;;;20.16;48.66
39449;BME280;25151;45.566;9.382;2023-02-17T08:29:29;101119.03;;;20.19;48.58
39449;BME280;25151;45.566;9.382;2023-02-17T08:32:32;101123.81;;;20.22;48.61
39449;BME280;25151;45.566;9.382;2023-02-17T08:35:45;101119.78;;;20.23;48.84
39449;BME280;25151;45.566;9.382;2023-02-17T08:38:53;101117.75;;;20.27;48.68
39449;BME280;25151;45.566;9.382;2023-02-17T08:42:02;101122.16;;;20.28;48.70
39449;BME280;25151;45.566;9.382;2023-02-17T08:45:29;101116.13;;;20.29;48.78
39449;BME280;25151;45.566;9.382;2023-02-17T08:48:36;101118.13;;;20.29;48.84
39449;BME280;25151;45.566;9.382;2023-02-17T08:51:39;101115.69;;;20.31;48.83
39449;BME280;25151;45.566;9.382;2023-02-17T08:55:06;101118.91;;;20.33;48.58
39449;BME280;25151;45.566;9.382;2023-02-17T08:58:08;101125.25;;;20.37;48.81
39449;BME280;25151;45.566;9.382;2023-02-17T09:05:17;101124.75;;;20.49;49.16
39449;BME280;25151;45.566;9.382;2023-02-17T09:08:21;101126.72;;;20.52;48.73
39449;BME280;25151;45.566;9.382;2023-02-17T09:11:29;101128.69;;;20.55;48.72
39449;BME280;25151;45.566;9.382;2023-02-17T09:14:33;101127.03;;;20.58;48.74
39449;BME280;25151;45.566;9.382;2023-02-17T09:17:39;101123.84;;;20.59;49.04
39449;BME280;25151;45.566;9.382;2023-02-17T09:20:47;101130.19;;;20.63;48.84
39449;BME280;25151;45.566;9.382;2023-02-17T09:23:54;101119.00;;;20.63;49.30
39449;BME280;25151;45.566;9.382;2023-02-17T09:26:56;101116.56;;;20.66;48.79
39449;BME280;25151;45.566;9.382;2023-02-17T09:30:32;101133.75;;;20.68;49.04
39449;BME280;25151;45.566;9.382;2023-02-17T09:33:48;101126.94;;;20.69;49.24
39449;BME280;25151;45.566;9.382;2023-02-17T09:37:02;101122.53;;;20.68;48.97
39449;BME280;25151;45.566;9.382;2023-02-17T09:40:14;101120.53;;;20.68;49.06
39449;BME280;25151;45.566;9.382;2023-02-17T09:43:29;101129.31;;;20.70;48.99
39449;BME280;25151;45.566;9.382;2023-02-17T09:46:44;101124.13;;;20.69;48.91
39449;BME280;25151;45.566;9.382;2023-02-17T09:50:09;101131.72;;;20.72;49.29
39449;BME280;25151;45.566;9.382;2023-02-17T09:54:02;101125.28;;;20.75;49.01
39449;BME280;25151;45.566;9.382;2023-02-17T09:57:18;101119.66;;;20.75;49.21
39449;BME280;25151;45.566;9.382;2023-02-17T10:00:32;101126.03;;;20.79;49.16
39449;BME280;25151;45.566;9.382;2023-02-17T10:03:39;101128.81;;;20.79;48.92
39449;BME280;25151;45.566;9.382;2023-02-17T10:13:49;101135.53;;;20.85;49.03
39449;BME280;25151;45.566;9.382;2023-02-17T10:17:39;101128.72;;;20.86;48.93
39449;BME280;25151;45.566;9.382;2023-02-17T10:20:30;101133.91;;;20.87;48.92
39449;BME280;25151;45.566;9.382;2023-02-17T10:23:52;101138.72;;;20.87;49.14
39449;BME280;25151;45.566;9.382;2023-02-17T10:30:58;101132.25;;;20.90;48.84
39449;BME280;25151;45.566;9.382;2023-02-17T10:34:09;101128.25;;;20.91;49.11
39449;BME280;25151;45.566;9.382;2023-02-17T10:37:23;101139.06;;;20.93;48.88
39449;BME280;25151;45.566;9.382;2023-02-17T10:40:31;101132.66;;;20.92;48.91
39449;BME280;25151;45.566;9.382;2023-02-17T10:43:35;101124.25;;;20.92;48.65
39449;BME280;25151;45.566;9.382;2023-02-17T10:46:39;101120.22;;;20.93;48.57
39449;BME280;25151;45.566;9.382;2023-02-17T10:49:47;101119.00;;;20.94;48.78
39449;BME280;25151;45.566;9.382;2023-02-17T10:52:53;101112.59;;;20.94;48.63
39449;BME280;25151;45.566;9.382;2023-02-17T10:56:22;101109.78;;;20.94;48.60
39449;BME280;25151;45.566;9.382;2023-02-17T10:59:47;101102.16;;;20.94;49.02
39449;BME280;25151;45.566;9.382;2023-02-17T11:02:50;101093.75;;;20.94;48.85
39449;BME280;25151;45.566;9.382;2023-02-17T11:05:59;101083.75;;;20.93;48.58
39449;BME280;25151;45.566;9.382;2023-02-17T11:09:15;101080.13;;;20.96;48.70
39449;BME280;25151;45.566;9.382;2023-02-17T11:12:21;101078.53;;;20.95;48.85
39449;BME280;25151;45.566;9.382;2023-02-17T11:15:30;101074.50;;;20.96;48.61
39449;BME280;25151;45.566;9.382;2023-02-17T11:18:44;101070.91;;;20.96;48.76
39449;BME280;25151;45.566;9.382;2023-02-17T11:21:57;101067.31;;;20.95;48.69
39449;BME280;25151;45.566;9.382;2023-02-17T11:25:26;101052.91;;;20.93;48.76
39449;BME280;25151;45.566;9.382;2023-02-17T11:28:28;101053.72;;;20.94;48.70
39449;BME280;25151;45.566;9.382;2023-02-17T11:31:31;101047.31;;;20.93;48.94
39449;BME280;25151;45.566;9.382;2023-02-17T11:34:40;101040.13;;;20.92;48.73
39449;BME280;25151;45.566;9.382;2023-02-17T11:37:48;101040.13;;;20.92;48.88
39449;BME280;25151;45.566;9.382;2023-02-17T11:43:58;101028.13;;;20.92;48.96
39449;BME280;25151;45.566;9.382;2023-02-17T11:47:29;101025.72;;;20.90;48.67
39449;BME280;25151;45.566;9.382;2023-02-17T11:51:06;101023.75;;;20.91;48.63
39449;BME280;25151;45.566;9.382;2023-02-17T12:09:22;100996.09;;;20.89;48.58
39449;BME280;25151;45.566;9.382;2023-02-17T12:30:46;100960.88;;;20.88;49.04
39449;BME280;25151;45.566;9.382;2023-02-17T12:37:26;100955.28;;;20.88;49.26
39449;BME280;25151;45.566;9.382;2023-02-17T12:40:45;100963.31;;;20.86;49.17
39449;BME280;25151;45.566;9.382;2023-02-17T12:43:48;100954.53;;;20.84;49.41
39449;BME280;25151;45.566;9.382;2023-02-17T12:46:56;100956.13;;;20.85;49.60
39449;BME280;25151;45.566;9.382;2023-02-17T12:50:14;100939.28;;;20.85;49.55
39449;BME280;25151;45.566;9.382;2023-02-17T12:53:49;100940.53;;;20.84;49.55
39449;BME280;25151;45.566;9.382;2023-02-17T12:57:03;100936.94;;;20.83;49.65
39449;BME280;25151;45.566;9.382;2023-02-17T13:00:35;100936.13;;;20.83;49.74
39449;BME280;25151;45.566;9.382;2023-02-17T13:03:39;100939.72;;;20.83;49.98
39449;BME280;25151;45.566;9.382;2023-02-17T13:06:44;100936.50;;;20.85;50.04
39449;BME280;25151;45.566;9.382;2023-02-17T13:09:50;100931.38;;;20.80;50.07
39449;BME280;25151;45.566;9.382;2023-02-17T13:12:59;100934.19;;;20.80;50.29
39449;BME280;25151;45.566;9.382;2023-02-17T13:16:05;100924.97;;;20.79;50.30
39449;BME280;25151;45.566;9.382;2023-02-17T13:19:27;100921.38;;;20.79;50.37
39449;BME280;25151;45.566;9.382;2023-02-17T13:22:32;100923.81;;;20.77;50.42
39449;BME280;25151;45.566;9.382;2023-02-17T13:25:35;100909.78;;;20.77;50.24
39449;BME280;25151;45.566;9.382;2023-02-17T13:28:40;100915.41;;;20.77;50.53
39449;BME280;25151;45.566;9.382;2023-02-17T13:32:05;100907.44;;;20.75;50.60
39449;BME280;25151;45.566;9.382;2023-02-17T13:38:32;100905.41;;;20.76;50.71
39449;BME280;25151;45.566;9.382;2023-02-17T13:41:47;100892.63;;;20.75;50.54
39449;BME280;25151;45.566;9.382;2023-02-17T13:44:53;100891.41;;;20.76;50.77
39449;BME280;25151;45.566;9.382;2023-02-17T13:48:12;100885.78;;;20.76;50.57
39449;BME280;25151;45.566;9.382;2023-02-17T13:51:28;100886.56;;;20.76;50.67
39449;BME280;25151;45.566;9.382;2023-02-17T13:54:31;100885.00;;;20.75;50.97
39449;BME280;25151;45.566;9.382;2023-02-17T13:57:38;100879.41;;;20.75;50.94
39449;BME280;25151;45.566;9.382;2023-02-17T14:00:49;100879.41;;;20.75;51.11
39449;BME280;25151;45.566;9.382;2023-02-17T14:03:55;100877.00;;;20.74;51.07
39449;BME280;25151;45.566;9.382;2023-02-17T14:07:05;100871.41;;;20.74;51.05
39449;BME280;25151;45.566;9.382;2023-02-17T14:10:23;100871.84;;;20.72;50.99
39449;BME280;25151;45.566;9.382;2023-02-17T14:13:30;100874.19;;;20.74;51.18
39449;BME280;25151;45.566;9.382;2023-02-17T14:16:44;100874.97;;;20.74;51.17
39449;BME280;25151;45.566;9.382;2023-02-17T14:19:48;100867.41;;;20.75;51.24
39449;BME280;25151;45.566;9.382;2023-02-17T14:23:24;100867.00;;;20.73;51.12
39449;BME280;25151;45.566;9.382;2023-02-17T14:26:47;100860.19;;;20.74;51.28
39449;BME280;25151;45.566;9.382;2023-02-17T14:30:27;100864.22;;;20.73;51.15
39449;BME280;25151;45.566;9.382;2023-02-17T14:33:29;100861.78;;;20.75;51.31
39449;BME280;25151;45.566;9.382;2023-02-17T14:36:37;100865.38;;;20.75;50.98
39449;BME280;25151;45.566;9.382;2023-02-17T14:39:46;100863.38;;;20.76;51.29
39449;BME280;25151;45.566;9.382;2023-02-17T14:42:52;100876.16;;;20.77;51.38
39449;BME280;25151;45.566;9.382;2023-02-17T14:46:00;100860.56;;;20.76;51.20
39449;BME280;25151;45.566;9.382;2023-02-17T14:49:04;100874.56;;;20.76;51.35
39449;BME280;25151;45.566;9.382;2023-02-17T14:52:32;100862.56;;;20.75;51.03
39449;BME280;25151;45.566;9.382;2023-02-17T14:56:14;100861.78;;;20.75;51.14
39449;BME280;25151;45.566;9.382;2023-02-17T14:59:16;100864.59;;;20.75;51.17
39449;BME280;25151;45.566;9.382;2023-02-17T15:02:19;100843.38;;;20.74;51.43
39449;BME280;25151;45.566;9.382;2023-02-17T15:05:24;100852.22;;;20.72;51.22
39449;BME280;25151;45.566;9.382;2023-02-17T15:08:33;100858.59;;;20.73;51.43
39449;BME280;25151;45.566;9.382;2023-02-17T15:11:36;100861.03;;;20.71;51.17
39449;BME280;25151;45.566;9.382;2023-02-17T15:14:39;100858.66;;;20.69;51.30
39449;BME280;25151;45.566;9.382;2023-02-17T15:17:42;100853.84;;;20.70;51.27
39449;BME280;25151;45.566;9.382;2023-02-17T15:20:46;100847.09;;;20.67;51.48
39449;BME280;25151;45.566;9.382;2023-02-17T15:23:50;100825.47;;;20.68;51.27
39449;BME280;25151;45.566;9.382;2023-02-17T15:26:53;100842.28;;;20.68;51.52
39449;BME280;25151;45.566;9.382;2023-02-17T15:29:55;100841.13;;;20.65;51.39
39449;BME280;25151;45.566;9.382;2023-02-17T15:32:57;100840.31;;;20.65;51.50
39449;BME280;25151;45.566;9.382;2023-02-17T15:36:00;100837.13;;;20.62;51.48
39449;BME280;25151;45.566;9.382;2023-02-17T15:39:02;100837.13;;;20.62;51.19
39449;BME280;25151;45.566;9.382;2023-02-17T15:42:09;100832.75;;;20.61;51.38
39449;BME280;25151;45.566;9.382;2023-02-17T15:45:17;100833.19;;;20.60;51.33
39449;BME280;25151;45.566;9.382;2023-02-17T15:48:24;100830.41;;;20.60;51.08
39449;BME280;25151;45.566;9.382;2023-02-17T15:51:27;100840.44;;;20.57;51.38
39449;BME280;25151;45.566;9.382;2023-02-17T15:54:32;100838.84;;;20.56;51.29
39449;BME280;25151;45.566;9.382;2023-02-17T15:57:38;100844.47;;;20.56;51.02
39449;BME280;25151;45.566;9.382;2023-02-17T16:00:43;100842.88;;;20.55;51.04
39449;BME280;25151;45.566;9.382;2023-02-17T16:03:50;100844.06;;;20.54;50.90
39449;BME280;25151;45.566;9.382;2023-02-17T16:07:02;100846.09;;;20.54;50.90
39449;BME280;25151;45.566;9.382;2023-02-17T16:10:07;100850.13;;;20.53;51.14
39449;BME280;25151;45.566;9.382;2023-02-17T16:13:12;100856.16;;;20.51;51.05
39449;BME280;25151;45.566;9.382;2023-02-17T16:16:29;100854.13;;;20.52;51.00
39449;BME280;25151;45.566;9.382;2023-02-17T16:19:36;100854.53;;;20.50;50.76
39449;BME280;25151;45.566;9.382;2023-02-17T16:22:37;100853.34;;;20.51;50.87
39449;BME280;25151;45.566;9.382;2023-02-17T16:25:44;100844.56;;;20.49;50.73
39449;BME280;25151;45.566;9.382;2023-02-17T16:28:47;100845.75;;;20.48;51.07
39449;BME280;25151;45.566;9.382;2023-02-17T16:31:49;100841.38;;;20.47;50.76
39449;BME280;25151;45.566;9.382;2023-02-17T16:34:52;100848.56;;;20.48;50.87
39449;BME280;25151;45.566;9.382;2023-02-17T16:38:00;100849.41;;;20.45;50.93
39449;BME280;25151;45.566;9.382;2023-02-17T16:41:03;100856.59;;;20.46;50.57
39449;BME280;25151;45.566;9.382;2023-02-17T16:44:05;100858.97;;;20.48;50.69
39449;BME280;25151;45.566;9.382;2023-02-17T16:47:18;100858.97;;;20.48;50.66
39449;BME280;25151;45.566;9.382;2023-02-17T16:50:32;100848.97;;;20.47;50.86
39449;BME280;25151;45.566;9.382;2023-02-17T16:53:36;100862.97;;;20.47;50.93
39449;BME280;25151;45.566;9.382;2023-02-17T16:56:43;100858.97;;;20.48;50.73
39449;BME280;25151;45.566;9.382;2023-02-17T16:59:47;100875.84;;;20.44;50.99
39449;BME280;25151;45.566;9.382;2023-02-17T17:02:48;100879.03;;;20.43;50.84
39449;BME280;25151;45.566;9.382;2023-02-17T17:05:51;100877.06;;;20.43;50.80
39449;BME280;25151;45.566;9.382;2023-02-17T17:08:52;100875.84;;;20.44;51.08
39449;BME280;25151;45.566;9.382;2023-02-17T17:11:54;100885.81;;;20.45;50.90
39449;BME280;25151;45.566;9.382;2023-02-17T17:14:55;100884.59;;;20.46;51.15
39449;BME280;25151;45.566;9.382;2023-02-17T17:18:02;100888.63;;;20.45;51.13
39449;BME280;25151;45.566;9.382;2023-02-17T17:21:03;100885.81;;;20.45;50.91
39449;BME280;25151;45.566;9.382;2023-02-17T17:24:05;100885.38;;;20.47;50.97
39449;BME280;25151;45.566;9.382;2023-02-17T17:27:06;100896.59;;;20.47;50.93
39449;BME280;25151;45.566;9.382;2023-02-17T17:30:11;100902.19;;;20.47;51.17
39449;BME280;25151;45.566;9.382;2023-02-17T17:33:13;100899.84;;;20.45;51.31
39449;BME280;25151;45.566;9.382;2023-02-17T17:36:26;100909.47;;;20.44;51.36
39449;BME280;25151;45.566;9.382;2023-02-17T17:39:27;100915.84;;;20.45;51.28
39449;BME280;25151;45.566;9.382;2023-02-17T17:42:28;100913.47;;;20.43;51.11
39449;BME280;25151;45.566;9.382;2023-02-17T17:45:29;100919.88;;;20.44;51.24
39449;BME280;25151;45.566;9.382;2023-02-17T17:48:30;100915.06;;;20.44;51.42
39449;BME280;25151;45.566;9.382;2023-02-17T17:51:32;100919.88;;;20.44;51.38